Time;durP1;ratioP1;P1;durP2;ratioP2;P2;SDS_P1;SDS_P2;PMS_P1;PMS_P2;Temp;Humidity;BMP_temperature;BMP_pressure;BME280_temperature;BME280_humidity;BME280_pressure;Samples;Min_cycle;Max_cycle;Signal;HPM_P1;HPM_P2
2022/07/15 00:01:50;;;;;;;3.80;1.20;;;;;;;;;;5015290;28;20111;-72
2022/07/15 00:04:16;;;;;;;3.58;1.23;;;;;;;;;;5016311;28;20040;-72
2022/07/15 00:06:41;;;;;;;4.35;1.10;;;;;;;;;;5016693;28;20034;-72
2022/07/15 00:09:07;;;;;;;2.88;1.13;;;;;;;;;;5018149;28;20504;-72
2022/07/15 00:11:32;;;;;;;4.53;1.30;;;;;;;;;;5015737;28;20603;-72
2022/07/15 00:13:58;;;;;;;6.70;1.40;;;;;;;;;;5018386;28;20151;-73
2022/07/15 00:16:23;;;;;;;3.38;1.00;;;;;;;;;;5020088;28;20036;-72
2022/07/15 00:18:49;;;;;;;3.33;1.10;;;;;;;;;;5012548;28;20056;-72
2022/07/15 00:21:14;;;;;;;4.68;1.17;;;;;;;;;;5014211;28;20036;-72
2022/07/15 00:23:40;;;;;;;3.55;1.20;;;;;;;;;;5013574;28;20078;-73
2022/07/15 00:26:05;;;;;;;3.67;1.35;;;;;;;;;;5017567;28;20025;-73
2022/07/15 00:28:30;;;;;;;5.70;1.10;;;;;;;;;;5014145;28;20029;-73
2022/07/15 00:30:56;;;;;;;3.97;1.23;;;;;;;;;;5014445;28;20025;-73
2022/07/15 00:33:21;;;;;;;2.88;1.23;;;;;;;;;;5007891;28;20037;-72
2022/07/15 00:35:47;;;;;;;3.13;1.40;;;;;;;;;;5017004;28;20028;-72
2022/07/15 00:38:12;;;;;;;3.08;1.48;;;;;;;;;;5016605;28;20120;-72
2022/07/15 00:40:46;;;;;;;4.05;1.55;;;;;;;;;;5016933;28;20034;-73
2022/07/15 00:43:12;;;;;;;6.80;1.70;;;;;;;;;;5013804;28;20088;-73
2022/07/15 00:45:37;;;;;;;2.80;1.13;;;;;;;;;;5013263;28;20037;-72
2022/07/15 00:48:03;;;;;;;4.40;1.52;;;;;;;;;;5015576;28;20030;-72
2022/07/15 00:50:30;;;;;;;3.58;1.60;;;;;;;;;;5013634;28;20129;-72
2022/07/15 00:53:07;;;;;;;5.30;1.55;;;;;;;;;;5017652;28;20025;-73
2022/07/15 00:55:39;;;;;;;3.50;1.33;;;;;;;;;;5020899;28;20037;-74
2022/07/15 00:58:06;;;;;;;8.63;1.95;;;;;;;;;;5016488;28;20393;-73
2022/07/15 01:00:33;;;;;;;3.30;1.23;;;;;;;;;;5014298;28;20037;-73
2022/07/15 01:03:00;;;;;;;4.32;1.63;;;;;;;;;;5025687;28;20496;-73
2022/07/15 01:05:26;;;;;;;4.75;1.50;;;;;;;;;;5014400;28;20032;-73
2022/07/15 01:07:52;;;;;;;3.60;1.33;;;;;;;;;;5016836;28;20041;-72
2022/07/15 01:10:19;;;;;;;3.53;1.40;;;;;;;;;;5016034;28;20044;-72
2022/07/15 01:12:47;;;;;;;3.92;1.67;;;;;;;;;;5014480;28;20037;-72
2022/07/15 01:15:12;;;;;;;6.65;1.40;;;;;;;;;;5025836;28;20045;-72
2022/07/15 01:17:38;;;;;;;4.82;1.25;;;;;;;;;;5008295;28;20037;-72
2022/07/15 01:20:04;;;;;;;3.05;1.40;;;;;;;;;;5013567;28;20083;-73
2022/07/15 01:22:30;;;;;;;5.20;1.67;;;;;;;;;;5016594;28;20057;-72
2022/07/15 01:24:55;;;;;;;4.85;1.52;;;;;;;;;;5014645;28;20033;-73
2022/07/15 01:27:21;;;;;;;4.97;1.80;;;;;;;;;;5012535;28;20045;-72
2022/07/15 01:29:46;;;;;;;3.92;1.42;;;;;;;;;;5014996;28;20036;-73
2022/07/15 01:32:12;;;;;;;3.00;1.60;;;;;;;;;;5010259;28;20642;-72
2022/07/15 01:34:37;;;;;;;2.92;1.48;;;;;;;;;;5013345;28;20483;-73
2022/07/15 01:37:02;;;;;;;3.60;1.40;;;;;;;;;;5013058;28;20386;-73
2022/07/15 01:39:28;;;;;;;4.97;1.70;;;;;;;;;;5015421;28;20034;-73
2022/07/15 01:41:53;;;;;;;3.63;1.40;;;;;;;;;;5011140;28;20033;-72
2022/07/15 01:44:19;;;;;;;4.20;1.35;;;;;;;;;;5017752;28;20457;-72
2022/07/15 01:46:44;;;;;;;3.58;1.58;;;;;;;;;;5016410;28;20462;-73
2022/07/15 01:49:22;;;;;;;3.38;1.50;;;;;;;;;;5024325;28;20027;-72
2022/07/15 01:51:48;;;;;;;3.22;1.63;;;;;;;;;;5024110;28;20107;-73
2022/07/15 01:54:13;;;;;;;4.40;1.60;;;;;;;;;;5020473;28;20033;-73
2022/07/15 01:56:39;;;;;;;4.10;1.52;;;;;;;;;;5026382;28;20037;-73
2022/07/15 01:59:04;;;;;;;4.65;1.27;;;;;;;;;;5021607;28;20025;-72
2022/07/15 02:01:30;;;;;;;4.30;1.58;;;;;;;;;;5020296;28;20033;-72
2022/07/15 02:03:55;;;;;;;3.95;1.58;;;;;;;;;;5019302;28;20048;-73
2022/07/15 02:06:21;;;;;;;4.97;1.55;;;;;;;;;;5019217;28;20096;-73
2022/07/15 02:08:46;;;;;;;3.03;1.30;;;;;;;;;;5022642;28;20017;-72
2022/07/15 02:11:12;;;;;;;4.90;1.50;;;;;;;;;;5023729;28;20029;-73
2022/07/15 02:13:37;;;;;;;3.05;1.33;;;;;;;;;;5016469;28;20064;-73
2022/07/15 02:16:03;;;;;;;4.20;1.90;;;;;;;;;;5020566;28;20138;-73
2022/07/15 02:18:28;;;;;;;4.55;1.50;;;;;;;;;;5020824;28;20040;-72
2022/07/15 02:20:54;;;;;;;3.45;1.48;;;;;;;;;;5021918;28;20463;-73
2022/07/15 02:23:19;;;;;;;4.18;1.70;;;;;;;;;;5022184;28;20091;-72
2022/07/15 02:25:44;;;;;;;3.95;1.60;;;;;;;;;;5019306;28;20777;-72
2022/07/15 02:28:10;;;;;;;3.65;1.52;;;;;;;;;;5017668;28;20056;-72
2022/07/15 02:30:37;;;;;;;4.63;2.00;;;;;;;;;;5019394;28;20032;-73
2022/07/15 02:33:03;;;;;;;6.60;1.88;;;;;;;;;;5036025;28;20393;-72
2022/07/15 02:35:30;;;;;;;5.50;1.70;;;;;;;;;;5017717;28;20029;-72
2022/07/15 02:37:55;;;;;;;4.85;1.70;;;;;;;;;;5033780;28;20490;-73
2022/07/15 02:40:21;;;;;;;5.75;1.70;;;;;;;;;;5020521;28;20043;-72
2022/07/15 02:42:53;;;;;;;4.15;1.60;;;;;;;;;;5018285;28;20663;-74
2022/07/15 02:45:20;;;;;;;3.33;1.58;;;;;;;;;;5020778;28;20481;-73
2022/07/15 02:47:46;;;;;;;6.38;1.83;;;;;;;;;;5023440;28;20465;-72
2022/07/15 02:50:13;;;;;;;4.05;1.75;;;;;;;;;;5020347;28;20045;-73
2022/07/15 02:52:38;;;;;;;6.40;1.95;;;;;;;;;;5019261;28;20647;-72
2022/07/15 02:55:04;;;;;;;4.60;1.60;;;;;;;;;;5019934;28;20040;-73
2022/07/15 02:57:30;;;;;;;5.97;1.98;;;;;;;;;;5016851;28;20477;-73
2022/07/15 02:59:58;;;;;;;4.07;1.60;;;;;;;;;;5018971;28;20037;-74
2022/07/15 03:02:24;;;;;;;4.43;1.80;;;;;;;;;;5018261;28;20061;-73
2022/07/15 03:04:50;;;;;;;7.35;2.13;;;;;;;;;;5019499;28;20118;-72
2022/07/15 03:07:15;;;;;;;6.70;2.00;;;;;;;;;;5014668;28;20021;-72
2022/07/15 03:09:40;;;;;;;3.67;1.70;;;;;;;;;;5016850;28;20164;-72
2022/07/15 03:12:06;;;;;;;4.28;1.67;;;;;;;;;;5016006;28;20064;-73
2022/07/15 03:14:31;;;;;;;3.63;1.85;;;;;;;;;;5014142;28;20040;-72
2022/07/15 03:16:57;;;;;;;4.90;1.90;;;;;;;;;;5018224;28;20079;-73
2022/07/15 03:19:22;;;;;;;5.72;1.95;;;;;;;;;;5018550;28;20029;-72
2022/07/15 03:21:48;;;;;;;4.45;1.85;;;;;;;;;;5017062;28;20489;-72
2022/07/15 03:24:13;;;;;;;3.63;1.80;;;;;;;;;;5019236;28;20052;-72
2022/07/15 03:26:39;;;;;;;4.75;1.88;;;;;;;;;;5012145;28;20720;-72
2022/07/15 03:29:05;;;;;;;4.00;1.75;;;;;;;;;;5014936;28;20033;-71
2022/07/15 03:31:30;;;;;;;4.88;1.92;;;;;;;;;;5018794;28;20041;-72
2022/07/15 03:33:56;;;;;;;5.72;1.98;;;;;;;;;;5018735;28;20061;-73
2022/07/15 03:36:21;;;;;;;4.50;2.03;;;;;;;;;;5016574;28;20030;-73
2022/07/15 03:38:49;;;;;;;3.65;1.80;;;;;;;;;;5012379;28;20462;-72
2022/07/15 03:41:14;;;;;;;3.10;1.83;;;;;;;;;;5016817;28;20040;-75
2022/07/15 03:43:39;;;;;;;4.00;2.08;;;;;;;;;;5016182;28;20034;-74
2022/07/15 03:46:05;;;;;;;3.97;1.90;;;;;;;;;;5016570;28;20042;-74
2022/07/15 03:48:30;;;;;;;8.88;2.47;;;;;;;;;;5017029;28;20480;-75
2022/07/15 03:50:56;;;;;;;3.97;1.70;;;;;;;;;;5021215;28;20038;-74
2022/07/15 03:53:21;;;;;;;6.43;1.85;;;;;;;;;;5017090;28;20021;-73
2022/07/15 03:55:47;;;;;;;5.70;1.75;;;;;;;;;;5018942;28;20033;-72
2022/07/15 03:58:12;;;;;;;5.35;1.98;;;;;;;;;;5015870;28;20057;-72
2022/07/15 04:00:37;;;;;;;4.03;2.10;;;;;;;;;;5018665;28;20033;-71
2022/07/15 04:03:03;;;;;;;5.57;2.30;;;;;;;;;;5014442;28;20474;-72
2022/07/15 04:05:28;;;;;;;5.75;2.28;;;;;;;;;;5017746;28;20078;-72
2022/07/15 04:07:53;;;;;;;3.85;2.00;;;;;;;;;;5015792;28;20037;-72
2022/07/15 04:10:19;;;;;;;5.20;2.13;;;;;;;;;;5019671;28;20103;-72
2022/07/15 04:12:44;;;;;;;5.63;2.22;;;;;;;;;;5019301;28;20071;-73
2022/07/15 04:15:10;;;;;;;5.63;2.85;;;;;;;;;;5017527;28;20053;-71
2022/07/15 04:17:36;;;;;;;5.38;2.22;;;;;;;;;;5018249;28;20032;-71
2022/07/15 04:20:01;;;;;;;4.13;1.90;;;;;;;;;;5014625;28;20088;-72
2022/07/15 04:22:27;;;;;;;4.47;2.08;;;;;;;;;;5015781;28;20949;-73
2022/07/15 04:24:52;;;;;;;4.03;2.00;;;;;;;;;;5016729;28;20469;-73
2022/07/15 04:27:18;;;;;;;4.47;1.83;;;;;;;;;;5016821;28;20041;-72
2022/07/15 04:29:44;;;;;;;5.13;1.80;;;;;;;;;;5018139;28;20037;-72
2022/07/15 04:32:09;;;;;;;4.63;1.90;;;;;;;;;;5015920;28;20032;-72
2022/07/15 04:34:35;;;;;;;4.90;1.88;;;;;;;;;;5014966;28;20046;-72
2022/07/15 04:37:00;;;;;;;6.93;1.80;;;;;;;;;;5012991;28;20029;-72
2022/07/15 04:39:26;;;;;;;5.35;1.95;;;;;;;;;;5014979;28;20133;-73
2022/07/15 04:41:51;;;;;;;4.75;1.92;;;;;;;;;;5019580;28;20037;-72
2022/07/15 04:44:18;;;;;;;6.05;2.33;;;;;;;;;;5016087;28;20040;-75
2022/07/15 04:46:44;;;;;;;4.68;1.90;;;;;;;;;;5017822;28;20029;-72
2022/07/15 04:51:53;;;;;;;5.13;2.22;;;;;;;;;;5017610;28;20117;-72
2022/07/15 04:54:18;;;;;;;6.93;2.42;;;;;;;;;;5015735;28;20751;-71
2022/07/15 04:56:44;;;;;;;5.43;2.38;;;;;;;;;;5016180;28;20922;-72
2022/07/15 04:59:09;;;;;;;4.15;2.35;;;;;;;;;;5017616;28;20064;-72
2022/07/15 05:01:35;;;;;;;5.60;2.42;;;;;;;;;;5015665;28;20029;-72
2022/07/15 05:04:01;;;;;;;5.60;2.30;;;;;;;;;;5014943;28;20087;-72
2022/07/15 05:06:26;;;;;;;6.07;2.50;;;;;;;;;;5015827;28;20021;-72
2022/07/15 05:08:52;;;;;;;4.95;2.17;;;;;;;;;;5017877;28;20027;-72
2022/07/15 05:11:17;;;;;;;5.80;2.40;;;;;;;;;;5014192;28;22722;-72
2022/07/15 05:13:43;;;;;;;4.43;1.98;;;;;;;;;;5013798;28;20525;-72
2022/07/15 05:16:08;;;;;;;5.00;2.70;;;;;;;;;;5015085;28;20063;-72
2022/07/15 05:18:33;;;;;;;5.55;2.30;;;;;;;;;;5015761;28;20124;-74
2022/07/15 05:20:59;;;;;;;5.55;2.28;;;;;;;;;;5013021;28;20048;-74
2022/07/15 05:23:24;;;;;;;13.93;2.20;;;;;;;;;;5015858;28;20561;-72
2022/07/15 05:25:50;;;;;;;7.28;2.63;;;;;;;;;;5014547;28;20030;-72
2022/07/15 05:28:15;;;;;;;6.25;2.00;;;;;;;;;;5014564;28;20025;-72
2022/07/15 05:30:41;;;;;;;5.63;1.92;;;;;;;;;;5018599;28;20095;-73
2022/07/15 05:33:06;;;;;;;6.95;2.20;;;;;;;;;;5018760;28;20501;-72
2022/07/15 05:35:32;;;;;;;5.70;1.83;;;;;;;;;;5014866;28;20037;-74
2022/07/15 05:37:57;;;;;;;5.03;2.10;;;;;;;;;;5015950;28;20029;-73
2022/07/15 05:40:23;;;;;;;5.38;2.03;;;;;;;;;;5016212;28;20025;-74
2022/07/15 05:42:48;;;;;;;5.50;2.00;;;;;;;;;;5013992;28;20064;-73
2022/07/15 05:45:13;;;;;;;6.53;1.80;;;;;;;;;;5015675;28;20037;-73
2022/07/15 05:47:39;;;;;;;5.28;1.85;;;;;;;;;;5017320;28;20037;-73
2022/07/15 05:50:06;;;;;;;4.97;2.00;;;;;;;;;;5013717;28;20059;-73
2022/07/15 05:52:32;;;;;;;5.05;2.00;;;;;;;;;;5013998;28;20084;-72
2022/07/15 05:54:57;;;;;;;4.63;1.80;;;;;;;;;;5016158;28;20037;-73
2022/07/15 05:57:22;;;;;;;4.57;2.10;;;;;;;;;;5009936;28;21293;-73
2022/07/15 05:59:48;;;;;;;6.40;1.90;;;;;;;;;;5015888;28;20037;-73
2022/07/15 06:02:13;;;;;;;6.13;1.73;;;;;;;;;;5013220;28;20048;-73
2022/07/15 06:04:39;;;;;;;5.20;1.90;;;;;;;;;;5012980;28;20465;-73
2022/07/15 06:07:05;;;;;;;4.13;1.70;;;;;;;;;;5012836;28;20049;-73
2022/07/15 06:09:30;;;;;;;3.85;1.95;;;;;;;;;;5017309;28;20758;-73
2022/07/15 06:11:56;;;;;;;4.57;1.42;;;;;;;;;;5013664;28;20469;-73
2022/07/15 06:14:21;;;;;;;2.45;1.13;;;;;;;;;;5015083;28;20026;-74
2022/07/15 06:16:47;;;;;;;5.88;1.00;;;;;;;;;;5015087;28;20029;-73
2022/07/15 06:19:12;;;;;;;3.25;0.75;;;;;;;;;;5012415;28;20076;-73
2022/07/15 06:21:38;;;;;;;3.63;0.80;;;;;;;;;;5015379;28;20033;-73
2022/07/15 06:24:03;;;;;;;1.92;0.50;;;;;;;;;;5024345;28;20452;-73
2022/07/15 06:26:29;;;;;;;3.42;0.70;;;;;;;;;;5009806;28;20481;-73
2022/07/15 06:28:54;;;;;;;3.90;0.88;;;;;;;;;;5012260;28;20034;-73
2022/07/15 06:31:19;;;;;;;3.40;0.90;;;;;;;;;;5021046;28;20030;-73
2022/07/15 06:33:45;;;;;;;3.80;1.00;;;;;;;;;;5026602;28;20056;-73
2022/07/15 06:36:10;;;;;;;5.00;1.20;;;;;;;;;;5022815;28;20033;-73
2022/07/15 06:38:36;;;;;;;2.33;0.60;;;;;;;;;;5029834;28;20028;-73
2022/07/15 06:41:01;;;;;;;4.07;1.00;;;;;;;;;;5023124;28;20025;-74
2022/07/15 06:43:26;;;;;;;5.10;0.98;;;;;;;;;;5020371;28;20040;-73
2022/07/15 06:45:52;;;;;;;4.90;0.93;;;;;;;;;;5025132;28;20481;-74
2022/07/15 06:48:17;;;;;;;4.38;0.95;;;;;;;;;;5022589;28;20029;-73
2022/07/15 06:50:43;;;;;;;3.10;0.75;;;;;;;;;;5020466;28;20041;-74
2022/07/15 06:53:08;;;;;;;2.95;1.00;;;;;;;;;;5020331;28;20481;-73
2022/07/15 06:55:34;;;;;;;3.25;0.70;;;;;;;;;;5019060;28;20095;-73
2022/07/15 06:57:59;;;;;;;2.22;0.75;;;;;;;;;;5023711;28;20068;-73
2022/07/15 07:00:25;;;;;;;3.75;1.00;;;;;;;;;;5020484;28;20502;-73
2022/07/15 07:02:50;;;;;;;3.25;0.80;;;;;;;;;;5025145;28;20033;-73
2022/07/15 07:05:16;;;;;;;2.92;0.80;;;;;;;;;;5021815;28;20138;-73
2022/07/15 07:07:42;;;;;;;3.95;0.98;;;;;;;;;;5029235;28;20017;-73
2022/07/15 07:10:08;;;;;;;4.38;1.13;;;;;;;;;;5023497;28;20029;-72
2022/07/15 07:12:33;;;;;;;2.97;0.77;;;;;;;;;;5023760;28;20047;-73
2022/07/15 07:15:00;;;;;;;4.55;1.00;;;;;;;;;;5028343;28;20036;-73
2022/07/15 07:17:26;;;;;;;5.07;1.20;;;;;;;;;;5025239;28;20478;-74
2022/07/15 07:19:51;;;;;;;3.15;1.10;;;;;;;;;;5022363;28;20091;-74
2022/07/15 07:22:17;;;;;;;4.70;1.10;;;;;;;;;;5023691;28;20033;-73
2022/07/15 07:24:42;;;;;;;3.15;0.95;;;;;;;;;;5028430;28;20045;-73
2022/07/15 07:27:08;;;;;;;4.97;0.90;;;;;;;;;;5025161;28;20531;-73
2022/07/15 07:29:33;;;;;;;4.72;1.23;;;;;;;;;;5022056;28;20370;-73
2022/07/15 07:31:58;;;;;;;3.47;0.82;;;;;;;;;;5022441;28;20363;-73
2022/07/15 07:34:24;;;;;;;3.00;0.85;;;;;;;;;;5020145;28;20107;-73
2022/07/15 07:36:50;;;;;;;4.18;1.13;;;;;;;;;;5026216;28;20081;-73
2022/07/15 07:39:16;;;;;;;5.57;0.93;;;;;;;;;;5027906;28;20064;-73
2022/07/15 07:41:42;;;;;;;3.00;0.70;;;;;;;;;;5025804;28;20491;-73
2022/07/15 07:44:07;;;;;;;3.67;0.80;;;;;;;;;;5022119;28;20037;-75
2022/07/15 07:46:33;;;;;;;3.75;0.80;;;;;;;;;;5026428;28;20079;-72
2022/07/15 07:48:59;;;;;;;4.70;0.70;;;;;;;;;;5025155;28;20110;-74
2022/07/15 07:51:24;;;;;;;4.30;0.70;;;;;;;;;;5019347;28;20025;-73
2022/07/15 07:53:50;;;;;;;3.38;0.82;;;;;;;;;;5024968;28;20029;-76
2022/07/15 07:56:15;;;;;;;3.58;0.60;;;;;;;;;;5025613;28;20025;-71
2022/07/15 07:58:40;;;;;;;3.33;0.70;;;;;;;;;;5022965;28;20084;-73
2022/07/15 08:01:06;;;;;;;3.05;0.85;;;;;;;;;;5021818;28;20441;-73
2022/07/15 08:03:31;;;;;;;3.70;0.63;;;;;;;;;;5023836;28;20029;-72
2022/07/15 08:05:57;;;;;;;2.30;0.63;;;;;;;;;;5018723;28;20033;-73
2022/07/15 08:08:23;;;;;;;1.67;0.52;;;;;;;;;;5023963;28;20064;-75
2022/07/15 08:10:52;;;;;;;2.55;0.75;;;;;;;;;;5020916;28;20375;-74
2022/07/15 08:13:19;;;;;;;3.80;0.70;;;;;;;;;;5023975;28;20171;-74
2022/07/15 08:15:45;;;;;;;2.83;0.70;;;;;;;;;;5018435;28;22034;-73
2022/07/15 08:18:12;;;;;;;3.15;0.77;;;;;;;;;;5023420;28;20037;-72
2022/07/15 08:20:37;;;;;;;2.88;0.57;;;;;;;;;;5029465;28;20367;-76
2022/07/15 08:23:04;;;;;;;2.97;0.70;;;;;;;;;;5022780;28;20088;-75
2022/07/15 08:25:32;;;;;;;2.78;1.08;;;;;;;;;;5030185;28;20029;-74
2022/07/15 08:27:59;;;;;;;3.38;0.80;;;;;;;;;;5019614;28;20080;-75
2022/07/15 08:30:26;;;;;;;3.08;0.60;;;;;;;;;;5026563;28;20021;-72
2022/07/15 08:32:51;;;;;;;2.67;0.60;;;;;;;;;;5028041;28;20045;-76
2022/07/15 08:35:17;;;;;;;3.97;1.00;;;;;;;;;;5022136;28;20037;-73
2022/07/15 08:37:43;;;;;;;4.68;1.20;;;;;;;;;;5024932;28;20500;-72
2022/07/15 08:40:10;;;;;;;5.00;0.85;;;;;;;;;;5030915;28;20108;-74
2022/07/15 08:42:39;;;;;;;3.38;0.77;;;;;;;;;;5022179;28;20031;-73
2022/07/15 08:45:06;;;;;;;1.42;0.63;;;;;;;;;;5024444;28;20379;-76
2022/07/15 08:47:32;;;;;;;5.30;0.77;;;;;;;;;;5019698;28;20058;-73
2022/07/15 08:49:58;;;;;;;2.13;0.47;;;;;;;;;;5017729;28;20021;-74
2022/07/15 08:52:25;;;;;;;3.00;0.77;;;;;;;;;;5021029;28;20026;-73
2022/07/15 08:54:51;;;;;;;3.40;0.80;;;;;;;;;;5026853;28;20036;-72
2022/07/15 08:57:17;;;;;;;3.60;0.75;;;;;;;;;;5024689;28;20033;-72
2022/07/15 08:59:45;;;;;;;2.22;0.68;;;;;;;;;;5019699;28;20415;-74
2022/07/15 09:02:12;;;;;;;3.72;0.98;;;;;;;;;;5014906;28;20060;-74
2022/07/15 09:05:15;;;;;;;1.95;0.50;;;;;;;;;;5017906;28;20030;-72
2022/07/15 09:07:52;;;;;;;6.03;1.02;;;;;;;;;;5016370;28;20030;-72
2022/07/15 09:10:17;;;;;;;2.03;0.60;;;;;;;;;;5027108;28;20026;-72
2022/07/15 09:12:42;;;;;;;2.17;0.57;;;;;;;;;;5025022;28;20088;-72
2022/07/15 09:15:08;;;;;;;2.47;0.57;;;;;;;;;;5022643;28;20033;-72
2022/07/15 09:17:33;;;;;;;2.03;0.98;;;;;;;;;;5022448;28;20029;-73
2022/07/15 09:20:05;;;;;;;2.88;0.60;;;;;;;;;;5029009;28;20033;-72
2022/07/15 09:22:48;;;;;;;3.92;0.70;;;;;;;;;;5030027;28;20108;-76
2022/07/15 09:25:14;;;;;;;7.00;0.95;;;;;;;;;;5025173;28;20053;-74
2022/07/15 09:27:41;;;;;;;2.50;0.65;;;;;;;;;;5009618;28;20079;-76
2022/07/15 09:36:14;;;;;;;3.95;0.68;;;;;;;;;;5021189;28;20060;-72
2022/07/15 09:38:44;;;;;;;3.70;1.25;;;;;;;;;;5024504;28;20374;-74
2022/07/15 09:41:25;;;;;;;3.13;0.80;;;;;;;;;;5025596;28;20545;-72
2022/07/15 09:44:16;;;;;;;2.83;0.80;;;;;;;;;;5026167;28;20029;-74
2022/07/15 09:46:47;;;;;;;3.25;0.70;;;;;;;;;;5021899;28;20091;-74
2022/07/15 09:49:34;;;;;;;1.52;0.75;;;;;;;;;;5024703;28;20397;-72
2022/07/15 09:52:08;;;;;;;2.17;0.70;;;;;;;;;;5026367;28;20131;-74
2022/07/15 09:54:43;;;;;;;1.95;0.60;;;;;;;;;;5021208;28;20029;-76
2022/07/15 09:57:11;;;;;;;2.17;0.57;;;;;;;;;;5018650;28;20065;-71
2022/07/15 09:59:37;;;;;;;2.83;0.80;;;;;;;;;;5025093;28;20032;-76
2022/07/15 10:02:02;;;;;;;1.42;0.68;;;;;;;;;;5025226;28;20026;-74
2022/07/15 10:04:30;;;;;;;4.10;0.82;;;;;;;;;;5019373;28;20043;-71
2022/07/15 10:06:58;;;;;;;1.77;0.75;;;;;;;;;;5021555;28;20401;-71
2022/07/15 10:09:32;;;;;;;1.77;0.73;;;;;;;;;;5022262;28;20037;-72
2022/07/15 10:12:10;;;;;;;1.90;0.70;;;;;;;;;;5026805;28;20117;-73
2022/07/15 10:14:50;;;;;;;2.17;0.82;;;;;;;;;;5026166;28;20112;-71
2022/07/15 10:17:35;;;;;;;3.85;0.70;;;;;;;;;;5025623;28;20025;-74
2022/07/15 10:20:19;;;;;;;2.53;0.80;;;;;;;;;;5023363;28;20033;-72
2022/07/15 10:22:56;;;;;;;2.10;0.70;;;;;;;;;;5025368;28;20033;-75
2022/07/15 10:25:52;;;;;;;3.30;0.70;;;;;;;;;;5019430;28;21024;-75
2022/07/15 10:28:30;;;;;;;3.88;0.70;;;;;;;;;;5019851;28;20113;-71
2022/07/15 10:31:16;;;;;;;2.65;0.70;;;;;;;;;;5026690;28;20164;-75
2022/07/15 10:33:42;;;;;;;1.80;0.65;;;;;;;;;;5018063;28;20474;-75
2022/07/15 10:36:08;;;;;;;2.75;0.73;;;;;;;;;;5014049;28;20036;-73
2022/07/15 10:38:36;;;;;;;1.77;0.60;;;;;;;;;;5013760;28;20029;-74
2022/07/15 10:41:07;;;;;;;1.90;0.75;;;;;;;;;;5017278;28;20461;-72
2022/07/15 10:43:48;;;;;;;2.97;0.65;;;;;;;;;;5019625;28;20480;-71
2022/07/15 10:46:18;;;;;;;1.45;0.65;;;;;;;;;;5018154;28;20033;-73
2022/07/15 10:48:45;;;;;;;1.02;0.60;;;;;;;;;;5017860;28;20025;-74
2022/07/15 10:51:10;;;;;;;3.25;0.77;;;;;;;;;;5018537;28;20498;-71
2022/07/15 10:53:43;;;;;;;1.92;0.80;;;;;;;;;;5017592;28;20021;-71
2022/07/15 10:56:41;;;;;;;1.60;0.70;;;;;;;;;;5014854;28;20037;-75
2022/07/15 10:59:14;;;;;;;1.38;0.50;;;;;;;;;;5026507;28;20109;-75
2022/07/15 11:01:43;;;;;;;2.80;0.70;;;;;;;;;;5023583;28;20036;-75
2022/07/15 11:04:17;;;;;;;2.38;0.40;;;;;;;;;;5029732;28;20032;-76
2022/07/15 11:10:01;;;;;;;8.98;2.15;;;;;;;;;;5028374;28;20087;-72
2022/07/15 11:12:29;;;;;;;7.68;1.92;;;;;;;;;;5026096;28;20033;-73
2022/07/15 11:15:00;;;;;;;6.47;1.42;;;;;;;;;;5029411;28;20029;-71
2022/07/15 11:17:28;;;;;;;2.97;0.98;;;;;;;;;;5019625;28;20033;-73
2022/07/15 11:19:57;;;;;;;2.50;0.75;;;;;;;;;;5022004;28;20109;-72
2022/07/15 11:22:25;;;;;;;2.13;0.40;;;;;;;;;;5029187;28;20060;-73
2022/07/15 11:24:52;;;;;;;1.38;0.40;;;;;;;;;;5026932;28;20112;-73
2022/07/15 11:27:18;;;;;;;1.45;0.50;;;;;;;;;;5032234;28;20034;-71
2022/07/15 11:29:53;;;;;;;1.60;0.55;;;;;;;;;;5032037;28;20025;-71
2022/07/15 11:32:22;;;;;;;4.07;0.63;;;;;;;;;;5033253;28;20037;-73
2022/07/15 11:34:50;;;;;;;3.15;0.93;;;;;;;;;;5030570;28;20191;-74
2022/07/15 11:37:18;;;;;;;1.92;0.50;;;;;;;;;;5032590;28;20497;-76
2022/07/15 11:39:48;;;;;;;1.58;0.88;;;;;;;;;;5032869;28;20033;-72
2022/07/15 11:45:06;;;;;;;1.05;0.50;;;;;;;;;;5030593;28;20040;-73
2022/07/15 11:47:32;;;;;;;1.42;0.50;;;;;;;;;;5030387;28;20060;-76
2022/07/15 11:50:03;;;;;;;2.35;0.60;;;;;;;;;;5021639;28;20104;-71
2022/07/15 11:52:28;;;;;;;1.88;0.60;;;;;;;;;;5035121;28;20026;-73
2022/07/15 11:54:55;;;;;;;1.23;0.50;;;;;;;;;;5035161;28;20025;-72
2022/07/15 11:57:20;;;;;;;1.60;0.60;;;;;;;;;;5028400;28;21169;-73
2022/07/15 11:59:58;;;;;;;1.83;0.60;;;;;;;;;;5025885;28;20037;-71
2022/07/15 12:02:28;;;;;;;2.13;0.60;;;;;;;;;;5034389;28;20111;-71
2022/07/15 12:05:07;;;;;;;3.97;0.80;;;;;;;;;;5025490;28;20030;-73
2022/07/15 12:07:39;;;;;;;1.85;0.40;;;;;;;;;;5026925;28;20116;-71
2022/07/15 12:10:05;;;;;;;2.73;0.57;;;;;;;;;;5035657;28;20033;-71
2022/07/15 12:12:30;;;;;;;2.63;0.50;;;;;;;;;;5032768;28;20329;-73
2022/07/15 12:14:56;;;;;;;1.63;0.63;;;;;;;;;;5027212;28;20025;-73
2022/07/15 12:17:21;;;;;;;1.15;0.50;;;;;;;;;;5031529;28;20025;-76
2022/07/15 12:19:51;;;;;;;2.83;0.60;;;;;;;;;;5026066;28;20033;-76
2022/07/15 12:22:17;;;;;;;1.42;0.40;;;;;;;;;;5029708;28;20026;-72
2022/07/15 12:24:47;;;;;;;2.92;0.45;;;;;;;;;;5030208;28;20038;-73
2022/07/15 12:27:13;;;;;;;1.67;0.47;;;;;;;;;;5026236;28;20045;-71
2022/07/15 12:29:40;;;;;;;1.23;0.47;;;;;;;;;;5020831;28;20025;-74
2022/07/15 12:32:16;;;;;;;1.42;0.50;;;;;;;;;;5031249;28;20033;-71
2022/07/15 12:34:47;;;;;;;2.17;0.60;;;;;;;;;;5029753;28;20183;-72
2022/07/15 12:37:22;;;;;;;1.20;0.45;;;;;;;;;;5031399;28;20515;-76
2022/07/15 12:40:06;;;;;;;3.28;0.63;;;;;;;;;;5033715;28;20021;-73
2022/07/15 12:42:38;;;;;;;2.65;0.77;;;;;;;;;;5026094;28;20389;-73
2022/07/15 12:45:07;;;;;;;2.75;0.60;;;;;;;;;;5026962;28;20075;-74
2022/07/15 12:47:33;;;;;;;1.98;0.50;;;;;;;;;;5025664;28;20413;-71
2022/07/15 12:50:04;;;;;;;1.23;0.50;;;;;;;;;;5032927;28;20033;-72
2022/07/15 12:52:35;;;;;;;1.30;0.45;;;;;;;;;;5031173;28;20481;-72
2022/07/15 12:55:22;;;;;;;2.38;0.50;;;;;;;;;;5027892;28;20419;-70
2022/07/15 12:57:49;;;;;;;2.10;0.70;;;;;;;;;;5031302;28;20029;-73
2022/07/15 13:00:20;;;;;;;1.25;0.50;;;;;;;;;;5031942;28;20051;-74
2022/07/15 13:03:19;;;;;;;1.15;0.70;;;;;;;;;;5031185;28;20075;-75
2022/07/15 13:05:46;;;;;;;2.60;0.60;;;;;;;;;;5014430;28;20087;-70
2022/07/15 13:08:26;;;;;;;2.00;0.60;;;;;;;;;;5029408;28;20413;-73
2022/07/15 13:10:54;;;;;;;5.80;1.20;;;;;;;;;;5032287;28;20040;-73
2022/07/15 13:13:22;;;;;;;1.52;0.65;;;;;;;;;;5026408;28;20076;-75
2022/07/15 13:15:48;;;;;;;1.88;0.60;;;;;;;;;;5028905;28;20104;-72
2022/07/15 13:18:14;;;;;;;1.65;0.65;;;;;;;;;;5026959;28;20427;-76
2022/07/15 13:20:40;;;;;;;1.85;0.70;;;;;;;;;;5024343;28;20029;-73
2022/07/15 13:23:06;;;;;;;0.80;0.50;;;;;;;;;;5024427;28;20405;-76
2022/07/15 13:25:36;;;;;;;1.88;0.60;;;;;;;;;;5028628;28;20053;-76
2022/07/15 13:28:04;;;;;;;0.95;0.60;;;;;;;;;;5027808;28;20040;-73
2022/07/15 13:30:30;;;;;;;2.15;0.73;;;;;;;;;;5023275;28;20029;-72
2022/07/15 13:32:56;;;;;;;1.50;0.60;;;;;;;;;;5026982;28;20453;-70
2022/07/15 13:35:21;;;;;;;1.80;0.70;;;;;;;;;;5027110;28;20037;-72
2022/07/15 13:37:47;;;;;;;1.52;0.68;;;;;;;;;;5026598;28;20452;-73
2022/07/15 13:40:13;;;;;;;1.60;0.80;;;;;;;;;;5029820;28;20025;-73
2022/07/15 13:42:39;;;;;;;2.38;0.82;;;;;;;;;;5024142;28;20096;-70
2022/07/15 13:45:06;;;;;;;3.47;0.60;;;;;;;;;;5029386;28;20051;-72
2022/07/15 13:47:31;;;;;;;4.10;0.77;;;;;;;;;;5027528;28;20412;-71
2022/07/15 13:52:49;;;;;;;2.00;0.90;;;;;;;;;;5021341;28;20448;-73
2022/07/15 13:55:16;;;;;;;1.58;0.75;;;;;;;;;;5027853;28;20029;-74
2022/07/15 13:57:42;;;;;;;0.98;0.65;;;;;;;;;;5024057;28;20108;-73
2022/07/15 14:00:13;;;;;;;1.95;0.90;;;;;;;;;;5024063;28;20104;-74
2022/07/15 14:02:39;;;;;;;1.73;0.90;;;;;;;;;;5018535;28;20041;-72
2022/07/15 14:05:06;;;;;;;2.22;1.25;;;;;;;;;;5029786;28;20026;-72
2022/07/15 14:07:32;;;;;;;3.28;0.80;;;;;;;;;;5021143;28;20076;-74
2022/07/15 14:09:57;;;;;;;1.77;0.82;;;;;;;;;;5030330;28;20029;-71
2022/07/15 14:12:22;;;;;;;2.35;0.90;;;;;;;;;;5030866;28;20041;-73
2022/07/15 14:14:48;;;;;;;1.63;0.80;;;;;;;;;;5024426;28;20063;-75
2022/07/15 14:17:13;;;;;;;1.80;0.80;;;;;;;;;;5024831;28;20039;-72
2022/07/15 14:19:39;;;;;;;3.38;1.00;;;;;;;;;;5028591;28;20029;-75
2022/07/15 14:22:04;;;;;;;2.60;0.80;;;;;;;;;;5019958;28;20383;-75
2022/07/15 14:24:30;;;;;;;1.60;0.80;;;;;;;;;;5020820;28;20033;-73
2022/07/15 14:26:55;;;;;;;1.45;0.90;;;;;;;;;;5024435;28;20057;-73
2022/07/15 14:29:21;;;;;;;2.38;0.90;;;;;;;;;;5019428;28;20036;-75
2022/07/15 14:31:46;;;;;;;3.95;1.38;;;;;;;;;;5019573;28;20591;-74
2022/07/15 14:34:11;;;;;;;2.40;0.88;;;;;;;;;;5019145;28;20045;-73
2022/07/15 14:36:37;;;;;;;1.30;0.85;;;;;;;;;;5022271;28;20724;-74
2022/07/15 14:39:04;;;;;;;2.42;1.00;;;;;;;;;;5018250;28;20382;-73
2022/07/15 14:41:30;;;;;;;2.72;0.98;;;;;;;;;;5025030;28;20028;-77
2022/07/15 14:43:57;;;;;;;2.95;1.40;;;;;;;;;;5029552;28;20033;-71
2022/07/15 14:46:22;;;;;;;1.85;1.00;;;;;;;;;;5027279;28;20091;-73
2022/07/15 14:48:48;;;;;;;2.28;1.10;;;;;;;;;;5018301;28;20910;-74
2022/07/15 14:51:13;;;;;;;2.20;1.02;;;;;;;;;;5017674;28;20528;-71
2022/07/15 14:53:38;;;;;;;2.47;1.25;;;;;;;;;;5021882;28;20382;-72
2022/07/15 14:56:04;;;;;;;3.50;1.20;;;;;;;;;;5026643;28;20040;-71
2022/07/15 14:58:29;;;;;;;2.38;1.10;;;;;;;;;;5029629;28;20037;-75
2022/07/15 15:00:55;;;;;;;2.53;1.10;;;;;;;;;;5028080;28;20485;-76
2022/07/15 15:03:20;;;;;;;4.93;1.40;;;;;;;;;;5028400;28;20042;-71